Wabush, Canada
Current Conditions -  °F | °C
As of 10:00 PM on Thursday 18 Dec 2014 (Local Time) from CYWK Reporting Station
Scattered Clouds Scattered Clouds  
Wind Chill: -15°   Ceiling: Unl
Heat Index: -15°   Visibility: 15mi
Dew Point: -18°   Wind: 2mph
Humidity: 84%   Direction: NA
Pressure: 29.86"   Gusts: NA
Location:  52.9°N, 66.87°W
Report Text: CYWK 190200Z VRB02KT 15SM FEW070 SCT280 M26/M28 A2986 RMK AS1CI2 LAST STAFFED OBS/NEXT 191000Z SLP177
Loading
Personal Weather Stations






























Interactive Weather Map New forecast layout! Learn more

10-Day Weather Forecast

Advertisements
Track Severe Weather on mobile